sensor_id;sensor_type;location;lat;lon;timestamp;temperature;humidity
33955;DHT22;20233;50.804;7.126;2023-08-06T00:02:23;16.70;99.90
33955;DHT22;20233;50.804;7.126;2023-08-06T00:04:48;16.70;99.90
33955;DHT22;20233;50.804;7.126;2023-08-06T00:07:14;16.70;99.90
33955;DHT22;20233;50.804;7.126;2023-08-06T00:09:39;16.70;99.90
33955;DHT22;20233;50.804;7.126;2023-08-06T00:12:05;16.70;99.90
33955;DHT22;20233;50.804;7.126;2023-08-06T00:14:30;16.70;99.90
33955;DHT22;20233;50.804;7.126;2023-08-06T00:16:56;16.70;99.90
33955;DHT22;20233;50.804;7.126;2023-08-06T00:19:22;16.60;99.90
33955;DHT22;20233;50.804;7.126;2023-08-06T00:21:49;16.60;99.90
33955;DHT22;20233;50.804;7.126;2023-08-06T00:24:14;16.60;99.90
33955;DHT22;20233;50.804;7.126;2023-08-06T00:26:40;16.60;99.90
33955;DHT22;20233;50.804;7.126;2023-08-06T00:29:05;16.50;99.90
33955;DHT22;20233;50.804;7.126;2023-08-06T00:31:31;16.50;99.90
33955;DHT22;20233;50.804;7.126;2023-08-06T00:33:56;16.40;99.90
33955;DHT22;20233;50.804;7.126;2023-08-06T00:36:22;16.40;99.90
33955;DHT22;20233;50.804;7.126;2023-08-06T00:38:47;16.40;99.90
33955;DHT22;20233;50.804;7.126;2023-08-06T00:41:13;16.30;99.90
33955;DHT22;20233;50.804;7.126;2023-08-06T00:43:39;16.40;99.90
33955;DHT22;20233;50.804;7.126;2023-08-06T00:46:05;16.40;99.90
33955;DHT22;20233;50.804;7.126;2023-08-06T00:50:57;16.40;99.90
33955;DHT22;20233;50.804;7.126;2023-08-06T00:53:23;16.40;99.90
33955;DHT22;20233;50.804;7.126;2023-08-06T00:55:48;16.40;99.90
33955;DHT22;20233;50.804;7.126;2023-08-06T00:58:15;16.40;99.90
33955;DHT22;20233;50.804;7.126;2023-08-06T01:00:41;16.40;99.90
33955;DHT22;20233;50.804;7.126;2023-08-06T01:03:07;16.40;99.90
33955;DHT22;20233;50.804;7.126;2023-08-06T01:05:32;16.40;99.90
33955;DHT22;20233;50.804;7.126;2023-08-06T01:11:13;16.50;99.90
33955;DHT22;20233;50.804;7.126;2023-08-06T01:13:48;16.50;99.90
33955;DHT22;20233;50.804;7.126;2023-08-06T01:16:18;16.50;99.90
33955;DHT22;20233;50.804;7.126;2023-08-06T01:18:44;16.50;99.90
33955;DHT22;20233;50.804;7.126;2023-08-06T01:21:15;16.50;99.90
33955;DHT22;20233;50.804;7.126;2023-08-06T01:23:42;16.50;99.90
33955;DHT22;20233;50.804;7.126;2023-08-06T01:31:27;16.50;99.90
33955;DHT22;20233;50.804;7.126;2023-08-06T01:33:58;16.50;99.90
33955;DHT22;20233;50.804;7.126;2023-08-06T01:36:24;16.50;99.90
33955;DHT22;20233;50.804;7.126;2023-08-06T01:38:52;16.50;99.90
33955;DHT22;20233;50.804;7.126;2023-08-06T01:41:18;16.50;99.90
33955;DHT22;20233;50.804;7.126;2023-08-06T01:43:44;16.50;99.90
33955;DHT22;20233;50.804;7.126;2023-08-06T01:46:09;16.50;99.90
33955;DHT22;20233;50.804;7.126;2023-08-06T01:48:35;16.50;99.90
33955;DHT22;20233;50.804;7.126;2023-08-06T01:51:01;16.50;99.90
33955;DHT22;20233;50.804;7.126;2023-08-06T01:53:27;16.50;99.90
33955;DHT22;20233;50.804;7.126;2023-08-06T01:55:52;16.50;99.90
33955;DHT22;20233;50.804;7.126;2023-08-06T01:58:18;16.50;99.90
33955;DHT22;20233;50.804;7.126;2023-08-06T02:00:43;16.50;99.90
33955;DHT22;20233;50.804;7.126;2023-08-06T02:03:09;16.50;99.90
33955;DHT22;20233;50.804;7.126;2023-08-06T02:05:34;16.50;99.90
33955;DHT22;20233;50.804;7.126;2023-08-06T02:08:00;16.40;99.90
33955;DHT22;20233;50.804;7.126;2023-08-06T02:10:25;16.40;99.90
33955;DHT22;20233;50.804;7.126;2023-08-06T02:12:51;16.40;99.90
33955;DHT22;20233;50.804;7.126;2023-08-06T02:15:16;16.40;99.90
33955;DHT22;20233;50.804;7.126;2023-08-06T02:17:42;16.40;99.90
33955;DHT22;20233;50.804;7.126;2023-08-06T02:20:08;16.30;99.90
33955;DHT22;20233;50.804;7.126;2023-08-06T02:22:33;16.30;99.90
33955;DHT22;20233;50.804;7.126;2023-08-06T02:25:00;16.30;99.90
33955;DHT22;20233;50.804;7.126;2023-08-06T02:27:26;16.40;99.90
33955;DHT22;20233;50.804;7.126;2023-08-06T02:29:52;16.30;99.90
33955;DHT22;20233;50.804;7.126;2023-08-06T02:32:17;16.30;99.90
33955;DHT22;20233;50.804;7.126;2023-08-06T02:34:43;16.30;99.90
33955;DHT22;20233;50.804;7.126;2023-08-06T02:37:08;16.30;99.90
33955;DHT22;20233;50.804;7.126;2023-08-06T02:39:34;16.40;99.90
33955;DHT22;20233;50.804;7.126;2023-08-06T02:42:02;16.40;99.90
33955;DHT22;20233;50.804;7.126;2023-08-06T02:44:28;16.40;99.90
33955;DHT22;20233;50.804;7.126;2023-08-06T02:46:53;16.40;99.90
33955;DHT22;20233;50.804;7.126;2023-08-06T02:49:19;16.40;99.90
33955;DHT22;20233;50.804;7.126;2023-08-06T02:51:45;16.40;99.90
33955;DHT22;20233;50.804;7.126;2023-08-06T02:54:10;16.30;99.90
33955;DHT22;20233;50.804;7.126;2023-08-06T02:56:36;16.40;99.90
33955;DHT22;20233;50.804;7.126;2023-08-06T02:59:01;16.30;99.90
33955;DHT22;20233;50.804;7.126;2023-08-06T03:01:27;16.30;99.90
33955;DHT22;20233;50.804;7.126;2023-08-06T03:03:54;16.40;99.90
33955;DHT22;20233;50.804;7.126;2023-08-06T03:06:19;16.30;99.90
33955;DHT22;20233;50.804;7.126;2023-08-06T03:08:45;16.30;99.90
33955;DHT22;20233;50.804;7.126;2023-08-06T03:11:10;16.30;99.90
33955;DHT22;20233;50.804;7.126;2023-08-06T03:13:36;16.40;99.90
33955;DHT22;20233;50.804;7.126;2023-08-06T03:16:01;16.40;99.90
33955;DHT22;20233;50.804;7.126;2023-08-06T03:18:27;16.40;99.90
33955;DHT22;20233;50.804;7.126;2023-08-06T03:20:53;16.40;99.90
33955;DHT22;20233;50.804;7.126;2023-08-06T03:23:19;16.30;99.90
33955;DHT22;20233;50.804;7.126;2023-08-06T03:25:45;16.30;99.90
33955;DHT22;20233;50.804;7.126;2023-08-06T03:28:10;16.30;99.90
33955;DHT22;20233;50.804;7.126;2023-08-06T03:30:36;16.30;99.90
33955;DHT22;20233;50.804;7.126;2023-08-06T03:33:01;16.30;99.90
33955;DHT22;20233;50.804;7.126;2023-08-06T03:35:27;16.30;99.90
33955;DHT22;20233;50.804;7.126;2023-08-06T03:37:53;16.30;99.90
33955;DHT22;20233;50.804;7.126;2023-08-06T03:40:18;16.30;99.90
33955;DHT22;20233;50.804;7.126;2023-08-06T03:42:44;16.30;99.90
33955;DHT22;20233;50.804;7.126;2023-08-06T03:45:09;16.30;99.90
33955;DHT22;20233;50.804;7.126;2023-08-06T03:47:35;16.30;99.90
33955;DHT22;20233;50.804;7.126;2023-08-06T03:50:00;16.30;99.90
33955;DHT22;20233;50.804;7.126;2023-08-06T03:52:26;16.20;99.90
33955;DHT22;20233;50.804;7.126;2023-08-06T03:54:51;16.30;99.90
33955;DHT22;20233;50.804;7.126;2023-08-06T03:57:17;16.40;99.90
33955;DHT22;20233;50.804;7.126;2023-08-06T03:59:43;16.40;99.90
33955;DHT22;20233;50.804;7.126;2023-08-06T04:02:10;16.30;99.90
33955;DHT22;20233;50.804;7.126;2023-08-06T04:04:35;16.30;99.90
33955;DHT22;20233;50.804;7.126;2023-08-06T04:07:01;16.40;99.90
33955;DHT22;20233;50.804;7.126;2023-08-06T04:09:28;16.30;99.90
33955;DHT22;20233;50.804;7.126;2023-08-06T04:11:54;16.30;99.90
33955;DHT22;20233;50.804;7.126;2023-08-06T04:14:20;16.30;99.90
33955;DHT22;20233;50.804;7.126;2023-08-06T04:16:45;16.30;99.90
33955;DHT22;20233;50.804;7.126;2023-08-06T04:19:12;16.30;99.90
33955;DHT22;20233;50.804;7.126;2023-08-06T04:21:37;16.30;99.90
33955;DHT22;20233;50.804;7.126;2023-08-06T04:24:03;16.40;99.90
33955;DHT22;20233;50.804;7.126;2023-08-06T04:26:28;16.30;99.90
33955;DHT22;20233;50.804;7.126;2023-08-06T04:28:54;16.30;99.90
33955;DHT22;20233;50.804;7.126;2023-08-06T04:31:19;16.30;99.90
33955;DHT22;20233;50.804;7.126;2023-08-06T04:33:45;16.30;99.90
33955;DHT22;20233;50.804;7.126;2023-08-06T04:36:13;16.30;99.90
33955;DHT22;20233;50.804;7.126;2023-08-06T04:38:38;16.30;99.90
33955;DHT22;20233;50.804;7.126;2023-08-06T04:41:06;16.40;99.90
33955;DHT22;20233;50.804;7.126;2023-08-06T04:43:32;16.30;99.90
33955;DHT22;20233;50.804;7.126;2023-08-06T04:45:57;16.40;99.90
33955;DHT22;20233;50.804;7.126;2023-08-06T04:48:23;16.40;99.90
33955;DHT22;20233;50.804;7.126;2023-08-06T04:50:50;16.40;99.90
33955;DHT22;20233;50.804;7.126;2023-08-06T04:53:15;16.30;99.90
33955;DHT22;20233;50.804;7.126;2023-08-06T04:55:41;16.40;99.90
33955;DHT22;20233;50.804;7.126;2023-08-06T04:58:08;16.40;99.90
33955;DHT22;20233;50.804;7.126;2023-08-06T05:00:34;16.50;99.90
33955;DHT22;20233;50.804;7.126;2023-08-06T05:03:00;16.40;99.90
33955;DHT22;20233;50.804;7.126;2023-08-06T05:05:26;16.40;99.90
33955;DHT22;20233;50.804;7.126;2023-08-06T05:07:54;16.40;99.90
33955;DHT22;20233;50.804;7.126;2023-08-06T05:10:20;16.40;99.90
33955;DHT22;20233;50.804;7.126;2023-08-06T05:12:45;16.40;99.90
33955;DHT22;20233;50.804;7.126;2023-08-06T05:15:11;16.40;99.90
33955;DHT22;20233;50.804;7.126;2023-08-06T05:17:36;16.50;99.90
33955;DHT22;20233;50.804;7.126;2023-08-06T05:20:02;16.50;99.90
33955;DHT22;20233;50.804;7.126;2023-08-06T05:22:28;16.50;99.90
33955;DHT22;20233;50.804;7.126;2023-08-06T05:24:53;16.60;99.90
33955;DHT22;20233;50.804;7.126;2023-08-06T05:27:19;16.60;99.90
33955;DHT22;20233;50.804;7.126;2023-08-06T05:29:45;16.60;99.90
33955;DHT22;20233;50.804;7.126;2023-08-06T05:32:10;16.60;99.90
33955;DHT22;20233;50.804;7.126;2023-08-06T05:34:36;16.60;99.90
33955;DHT22;20233;50.804;7.126;2023-08-06T05:37:03;16.60;99.90
33955;DHT22;20233;50.804;7.126;2023-08-06T05:39:29;16.60;99.90
33955;DHT22;20233;50.804;7.126;2023-08-06T05:41:54;16.70;99.90
33955;DHT22;20233;50.804;7.126;2023-08-06T05:44:21;16.70;99.90
33955;DHT22;20233;50.804;7.126;2023-08-06T05:46:49;16.70;99.90
33955;DHT22;20233;50.804;7.126;2023-08-06T05:49:15;16.70;99.90
33955;DHT22;20233;50.804;7.126;2023-08-06T05:51:40;16.70;99.90
33955;DHT22;20233;50.804;7.126;2023-08-06T05:54:06;16.70;99.90
33955;DHT22;20233;50.804;7.126;2023-08-06T05:56:31;16.80;99.90
33955;DHT22;20233;50.804;7.126;2023-08-06T05:58:57;16.80;99.90
33955;DHT22;20233;50.804;7.126;2023-08-06T06:01:23;16.80;99.90
33955;DHT22;20233;50.804;7.126;2023-08-06T06:03:48;16.80;99.90
33955;DHT22;20233;50.804;7.126;2023-08-06T06:06:14;16.80;99.90
33955;DHT22;20233;50.804;7.126;2023-08-06T06:08:40;16.80;99.90
33955;DHT22;20233;50.804;7.126;2023-08-06T06:11:06;16.90;99.90
33955;DHT22;20233;50.804;7.126;2023-08-06T06:13:31;16.80;99.90
33955;DHT22;20233;50.804;7.126;2023-08-06T06:15:57;16.80;99.90
33955;DHT22;20233;50.804;7.126;2023-08-06T06:18:24;16.90;99.90
33955;DHT22;20233;50.804;7.126;2023-08-06T06:20:49;16.90;99.90
33955;DHT22;20233;50.804;7.126;2023-08-06T06:23:15;16.90;99.90
33955;DHT22;20233;50.804;7.126;2023-08-06T06:25:47;16.90;99.90
33955;DHT22;20233;50.804;7.126;2023-08-06T06:28:13;17.00;99.90
33955;DHT22;20233;50.804;7.126;2023-08-06T06:30:41;17.00;99.90
33955;DHT22;20233;50.804;7.126;2023-08-06T06:33:07;17.00;99.90
33955;DHT22;20233;50.804;7.126;2023-08-06T06:35:33;17.00;99.90
33955;DHT22;20233;50.804;7.126;2023-08-06T06:37:58;17.00;99.90
33955;DHT22;20233;50.804;7.126;2023-08-06T06:40:25;17.10;99.90
33955;DHT22;20233;50.804;7.126;2023-08-06T06:42:51;17.10;99.90
33955;DHT22;20233;50.804;7.126;2023-08-06T06:45:17;17.10;99.90
33955;DHT22;20233;50.804;7.126;2023-08-06T06:47:42;17.10;99.90
33955;DHT22;20233;50.804;7.126;2023-08-06T06:50:08;17.10;99.90
33955;DHT22;20233;50.804;7.126;2023-08-06T06:52:34;17.20;99.90
33955;DHT22;20233;50.804;7.126;2023-08-06T06:55:00;17.20;99.90
33955;DHT22;20233;50.804;7.126;2023-08-06T06:57:25;17.10;99.90
33955;DHT22;20233;50.804;7.126;2023-08-06T06:59:53;17.10;99.90
33955;DHT22;20233;50.804;7.126;2023-08-06T07:02:18;17.10;99.90
33955;DHT22;20233;50.804;7.126;2023-08-06T07:04:44;17.20;99.90
33955;DHT22;20233;50.804;7.126;2023-08-06T07:07:09;17.20;99.90
33955;DHT22;20233;50.804;7.126;2023-08-06T07:09:35;17.20;99.90
33955;DHT22;20233;50.804;7.126;2023-08-06T07:12:01;17.30;99.90
33955;DHT22;20233;50.804;7.126;2023-08-06T07:14:27;17.30;99.90
33955;DHT22;20233;50.804;7.126;2023-08-06T07:16:55;17.30;99.90
33955;DHT22;20233;50.804;7.126;2023-08-06T07:19:20;17.30;99.90
33955;DHT22;20233;50.804;7.126;2023-08-06T07:21:46;17.30;99.90
33955;DHT22;20233;50.804;7.126;2023-08-06T07:24:12;17.40;99.90
33955;DHT22;20233;50.804;7.126;2023-08-06T07:26:38;17.40;99.90
33955;DHT22;20233;50.804;7.126;2023-08-06T07:29:03;17.40;99.90
33955;DHT22;20233;50.804;7.126;2023-08-06T07:31:29;17.40;99.90
33955;DHT22;20233;50.804;7.126;2023-08-06T07:33:54;17.50;99.90
33955;DHT22;20233;50.804;7.126;2023-08-06T07:36:20;17.50;99.90
33955;DHT22;20233;50.804;7.126;2023-08-06T07:38:46;17.50;99.90
33955;DHT22;20233;50.804;7.126;2023-08-06T07:41:12;17.40;99.90
33955;DHT22;20233;50.804;7.126;2023-08-06T07:43:38;17.40;99.90
33955;DHT22;20233;50.804;7.126;2023-08-06T07:46:03;17.40;99.90
33955;DHT22;20233;50.804;7.126;2023-08-06T07:48:29;17.30;99.90
33955;DHT22;20233;50.804;7.126;2023-08-06T07:50:55;17.00;99.90
33955;DHT22;20233;50.804;7.126;2023-08-06T07:53:22;17.30;99.90
33955;DHT22;20233;50.804;7.126;2023-08-06T07:55:51;17.40;99.90
33955;DHT22;20233;50.804;7.126;2023-08-06T07:58:18;17.10;99.90
33955;DHT22;20233;50.804;7.126;2023-08-06T08:00:43;17.10;99.90
33955;DHT22;20233;50.804;7.126;2023-08-06T08:03:14;17.20;99.90
33955;DHT22;20233;50.804;7.126;2023-08-06T08:05:40;17.40;99.90
33955;DHT22;20233;50.804;7.126;2023-08-06T08:08:06;17.00;99.90
33955;DHT22;20233;50.804;7.126;2023-08-06T08:10:33;17.20;99.90
33955;DHT22;20233;50.804;7.126;2023-08-06T08:13:03;17.40;99.90
33955;DHT22;20233;50.804;7.126;2023-08-06T08:15:30;17.10;99.90
33955;DHT22;20233;50.804;7.126;2023-08-06T08:17:56;17.00;99.90
33955;DHT22;20233;50.804;7.126;2023-08-06T08:20:22;17.10;99.90
33955;DHT22;20233;50.804;7.126;2023-08-06T08:22:47;17.30;99.90
33955;DHT22;20233;50.804;7.126;2023-08-06T08:25:15;17.30;99.90
33955;DHT22;20233;50.804;7.126;2023-08-06T08:27:40;17.70;99.90
33955;DHT22;20233;50.804;7.126;2023-08-06T08:30:06;17.80;99.90
33955;DHT22;20233;50.804;7.126;2023-08-06T08:32:32;17.70;99.90
33955;DHT22;20233;50.804;7.126;2023-08-06T08:34:57;18.00;99.90
33955;DHT22;20233;50.804;7.126;2023-08-06T08:37:23;18.00;99.90
33955;DHT22;20233;50.804;7.126;2023-08-06T08:39:49;18.10;99.90
33955;DHT22;20233;50.804;7.126;2023-08-06T08:42:16;18.20;99.90
33955;DHT22;20233;50.804;7.126;2023-08-06T08:44:42;18.10;99.90
33955;DHT22;20233;50.804;7.126;2023-08-06T08:47:09;18.00;99.90
33955;DHT22;20233;50.804;7.126;2023-08-06T08:49:36;18.10;99.90
33955;DHT22;20233;50.804;7.126;2023-08-06T08:52:02;18.10;99.90
33955;DHT22;20233;50.804;7.126;2023-08-06T08:54:29;18.10;99.90
33955;DHT22;20233;50.804;7.126;2023-08-06T08:56:56;18.10;99.90
33955;DHT22;20233;50.804;7.126;2023-08-06T08:59:22;18.00;99.90
33955;DHT22;20233;50.804;7.126;2023-08-06T09:01:48;18.00;99.90
33955;DHT22;20233;50.804;7.126;2023-08-06T09:04:18;18.00;99.90
33955;DHT22;20233;50.804;7.126;2023-08-06T09:06:46;17.90;99.90
33955;DHT22;20233;50.804;7.126;2023-08-06T09:09:15;17.90;99.90
33955;DHT22;20233;50.804;7.126;2023-08-06T09:11:45;17.80;99.90
33955;DHT22;20233;50.804;7.126;2023-08-06T09:14:11;17.80;99.90
33955;DHT22;20233;50.804;7.126;2023-08-06T09:16:38;17.80;99.90
33955;DHT22;20233;50.804;7.126;2023-08-06T09:19:08;17.80;99.90
33955;DHT22;20233;50.804;7.126;2023-08-06T09:21:36;17.70;99.90
33955;DHT22;20233;50.804;7.126;2023-08-06T09:24:11;17.70;99.90
33955;DHT22;20233;50.804;7.126;2023-08-06T09:26:37;17.80;99.90
33955;DHT22;20233;50.804;7.126;2023-08-06T09:29:07;17.80;99.90
33955;DHT22;20233;50.804;7.126;2023-08-06T09:31:44;17.90;99.90
33955;DHT22;20233;50.804;7.126;2023-08-06T09:34:22;17.60;99.90
33955;DHT22;20233;50.804;7.126;2023-08-06T09:36:49;17.80;99.90
33955;DHT22;20233;50.804;7.126;2023-08-06T09:39:35;17.80;99.90
33955;DHT22;20233;50.804;7.126;2023-08-06T09:42:01;17.70;99.90
33955;DHT22;20233;50.804;7.126;2023-08-06T09:44:30;17.80;99.90
33955;DHT22;20233;50.804;7.126;2023-08-06T09:46:57;18.00;99.90
33955;DHT22;20233;50.804;7.126;2023-08-06T09:51:59;17.90;99.90
33955;DHT22;20233;50.804;7.126;2023-08-06T09:54:26;17.60;99.90
33955;DHT22;20233;50.804;7.126;2023-08-06T09:56:53;17.50;99.90
33955;DHT22;20233;50.804;7.126;2023-08-06T09:59:18;17.60;99.90
33955;DHT22;20233;50.804;7.126;2023-08-06T10:01:46;17.60;99.90
33955;DHT22;20233;50.804;7.126;2023-08-06T10:04:14;17.50;99.90
33955;DHT22;20233;50.804;7.126;2023-08-06T10:06:42;17.30;99.90
33955;DHT22;20233;50.804;7.126;2023-08-06T10:09:08;17.30;99.90
33955;DHT22;20233;50.804;7.126;2023-08-06T10:11:36;17.10;99.90
33955;DHT22;20233;50.804;7.126;2023-08-06T10:14:12;17.00;99.90
33955;DHT22;20233;50.804;7.126;2023-08-06T10:16:40;16.80;99.90
33955;DHT22;20233;50.804;7.126;2023-08-06T10:19:08;16.80;99.90
33955;DHT22;20233;50.804;7.126;2023-08-06T10:21:34;16.80;99.90
33955;DHT22;20233;50.804;7.126;2023-08-06T10:24:00;16.80;99.90
33955;DHT22;20233;50.804;7.126;2023-08-06T10:26:28;16.70;99.90
33955;DHT22;20233;50.804;7.126;2023-08-06T10:28:54;16.60;99.90
33955;DHT22;20233;50.804;7.126;2023-08-06T10:31:20;16.60;99.90
33955;DHT22;20233;50.804;7.126;2023-08-06T10:33:47;16.30;99.90
33955;DHT22;20233;50.804;7.126;2023-08-06T10:36:15;16.00;99.90
33955;DHT22;20233;50.804;7.126;2023-08-06T10:38:48;16.00;99.90
33955;DHT22;20233;50.804;7.126;2023-08-06T10:41:29;15.80;99.90
33955;DHT22;20233;50.804;7.126;2023-08-06T10:44:09;15.40;99.90
33955;DHT22;20233;50.804;7.126;2023-08-06T10:49:01;15.10;99.90
33955;DHT22;20233;50.804;7.126;2023-08-06T10:51:27;15.00;99.90
33955;DHT22;20233;50.804;7.126;2023-08-06T10:53:53;15.20;99.90
33955;DHT22;20233;50.804;7.126;2023-08-06T10:56:21;15.50;99.90
33955;DHT22;20233;50.804;7.126;2023-08-06T10:58:54;15.40;99.90
33955;DHT22;20233;50.804;7.126;2023-08-06T11:01:21;15.60;99.90
33955;DHT22;20233;50.804;7.126;2023-08-06T11:03:47;15.80;99.90
33955;DHT22;20233;50.804;7.126;2023-08-06T11:06:18;15.70;99.90
33955;DHT22;20233;50.804;7.126;2023-08-06T11:08:53;15.50;99.90
33955;DHT22;20233;50.804;7.126;2023-08-06T11:11:19;15.60;99.90
33955;DHT22;20233;50.804;7.126;2023-08-06T11:13:47;15.50;99.90
33955;DHT22;20233;50.804;7.126;2023-08-06T11:16:17;15.50;99.90
33955;DHT22;20233;50.804;7.126;2023-08-06T11:18:43;15.50;99.90
33955;DHT22;20233;50.804;7.126;2023-08-06T11:21:09;15.80;99.90
33955;DHT22;20233;50.804;7.126;2023-08-06T11:23:35;15.80;99.90
33955;DHT22;20233;50.804;7.126;2023-08-06T11:26:01;15.80;99.90
33955;DHT22;20233;50.804;7.126;2023-08-06T11:28:27;15.70;99.90
33955;DHT22;20233;50.804;7.126;2023-08-06T11:30:53;15.50;99.90
33955;DHT22;20233;50.804;7.126;2023-08-06T11:33:23;15.60;99.90
33955;DHT22;20233;50.804;7.126;2023-08-06T11:35:51;15.50;99.90
33955;DHT22;20233;50.804;7.126;2023-08-06T11:38:17;15.50;99.90
33955;DHT22;20233;50.804;7.126;2023-08-06T11:40:44;15.60;99.90
33955;DHT22;20233;50.804;7.126;2023-08-06T11:43:11;15.30;99.90
33955;DHT22;20233;50.804;7.126;2023-08-06T11:45:37;15.20;99.90
33955;DHT22;20233;50.804;7.126;2023-08-06T11:48:03;15.30;99.90
33955;DHT22;20233;50.804;7.126;2023-08-06T11:50:28;15.40;99.90
33955;DHT22;20233;50.804;7.126;2023-08-06T11:53:00;15.60;99.90
33955;DHT22;20233;50.804;7.126;2023-08-06T11:55:26;15.30;99.90
33955;DHT22;20233;50.804;7.126;2023-08-06T11:57:53;15.30;99.90
33955;DHT22;20233;50.804;7.126;2023-08-06T12:00:20;15.50;99.90
33955;DHT22;20233;50.804;7.126;2023-08-06T12:02:48;15.50;99.90
33955;DHT22;20233;50.804;7.126;2023-08-06T12:05:22;15.70;99.90
33955;DHT22;20233;50.804;7.126;2023-08-06T12:10:17;15.90;99.90
33955;DHT22;20233;50.804;7.126;2023-08-06T12:12:45;16.10;99.90
33955;DHT22;20233;50.804;7.126;2023-08-06T12:15:11;15.90;99.90
33955;DHT22;20233;50.804;7.126;2023-08-06T12:17:37;15.80;99.90
33955;DHT22;20233;50.804;7.126;2023-08-06T12:20:06;15.70;99.90
33955;DHT22;20233;50.804;7.126;2023-08-06T12:22:33;15.90;99.90
33955;DHT22;20233;50.804;7.126;2023-08-06T12:25:08;15.90;99.90
33955;DHT22;20233;50.804;7.126;2023-08-06T12:27:37;16.00;99.90
33955;DHT22;20233;50.804;7.126;2023-08-06T12:30:05;16.10;99.90
33955;DHT22;20233;50.804;7.126;2023-08-06T12:32:31;15.90;99.90
33955;DHT22;20233;50.804;7.126;2023-08-06T12:34:56;16.00;99.90
33955;DHT22;20233;50.804;7.126;2023-08-06T12:37:22;16.20;99.90
33955;DHT22;20233;50.804;7.126;2023-08-06T12:39:48;16.00;99.90
33955;DHT22;20233;50.804;7.126;2023-08-06T12:42:14;16.10;99.90
33955;DHT22;20233;50.804;7.126;2023-08-06T12:44:39;16.20;99.90
33955;DHT22;20233;50.804;7.126;2023-08-06T12:47:07;16.10;99.90
33955;DHT22;20233;50.804;7.126;2023-08-06T12:49:33;16.30;99.90
33955;DHT22;20233;50.804;7.126;2023-08-06T12:51:58;16.20;99.90
33955;DHT22;20233;50.804;7.126;2023-08-06T12:54:25;16.30;99.90
33955;DHT22;20233;50.804;7.126;2023-08-06T12:56:51;16.40;99.90
33955;DHT22;20233;50.804;7.126;2023-08-06T12:59:17;16.40;99.90
33955;DHT22;20233;50.804;7.126;2023-08-06T13:01:44;16.40;99.90
33955;DHT22;20233;50.804;7.126;2023-08-06T13:04:10;16.50;99.90
33955;DHT22;20233;50.804;7.126;2023-08-06T13:06:36;16.40;99.90
33955;DHT22;20233;50.804;7.126;2023-08-06T13:09:12;16.40;99.90
33955;DHT22;20233;50.804;7.126;2023-08-06T13:11:39;16.40;99.90
33955;DHT22;20233;50.804;7.126;2023-08-06T13:14:08;16.40;99.90
33955;DHT22;20233;50.804;7.126;2023-08-06T13:16:40;16.40;99.90
33955;DHT22;20233;50.804;7.126;2023-08-06T13:19:07;16.40;99.90
33955;DHT22;20233;50.804;7.126;2023-08-06T13:24:15;16.30;99.90
33955;DHT22;20233;50.804;7.126;2023-08-06T13:26:41;16.10;99.90
33955;DHT22;20233;50.804;7.126;2023-08-06T13:29:07;16.20;99.90
33955;DHT22;20233;50.804;7.126;2023-08-06T13:31:32;16.20;99.90
33955;DHT22;20233;50.804;7.126;2023-08-06T13:33:58;16.00;99.90
33955;DHT22;20233;50.804;7.126;2023-08-06T13:36:25;15.50;99.90
33955;DHT22;20233;50.804;7.126;2023-08-06T13:38:51;15.70;99.90
33955;DHT22;20233;50.804;7.126;2023-08-06T13:41:17;15.90;99.90
33955;DHT22;20233;50.804;7.126;2023-08-06T13:43:42;15.90;99.90
33955;DHT22;20233;50.804;7.126;2023-08-06T13:46:09;15.90;99.90
33955;DHT22;20233;50.804;7.126;2023-08-06T13:48:35;16.00;99.90
33955;DHT22;20233;50.804;7.126;2023-08-06T13:51:00;16.10;99.90
33955;DHT22;20233;50.804;7.126;2023-08-06T13:53:26;16.10;99.90
33955;DHT22;20233;50.804;7.126;2023-08-06T13:55:55;16.20;99.90
33955;DHT22;20233;50.804;7.126;2023-08-06T13:58:22;16.10;99.90
33955;DHT22;20233;50.804;7.126;2023-08-06T14:00:47;16.10;99.90
33955;DHT22;20233;50.804;7.126;2023-08-06T14:03:13;16.10;99.90
33955;DHT22;20233;50.804;7.126;2023-08-06T14:05:38;16.20;99.90
33955;DHT22;20233;50.804;7.126;2023-08-06T14:08:04;16.30;99.90
33955;DHT22;20233;50.804;7.126;2023-08-06T14:10:30;16.20;99.90
33955;DHT22;20233;50.804;7.126;2023-08-06T14:12:55;16.20;99.90
33955;DHT22;20233;50.804;7.126;2023-08-06T14:15:21;16.10;99.90
33955;DHT22;20233;50.804;7.126;2023-08-06T14:17:46;16.20;99.90
33955;DHT22;20233;50.804;7.126;2023-08-06T14:20:12;16.30;99.90
33955;DHT22;20233;50.804;7.126;2023-08-06T14:22:38;16.30;99.90
33955;DHT22;20233;50.804;7.126;2023-08-06T14:25:04;16.30;99.90
33955;DHT22;20233;50.804;7.126;2023-08-06T14:27:30;16.20;99.90
33955;DHT22;20233;50.804;7.126;2023-08-06T14:29:55;16.20;99.90
33955;DHT22;20233;50.804;7.126;2023-08-06T14:32:22;16.10;99.90
33955;DHT22;20233;50.804;7.126;2023-08-06T14:34:48;16.20;99.90
33955;DHT22;20233;50.804;7.126;2023-08-06T14:37:13;16.20;99.90
33955;DHT22;20233;50.804;7.126;2023-08-06T14:39:39;16.20;99.90
33955;DHT22;20233;50.804;7.126;2023-08-06T14:42:05;16.30;99.90
33955;DHT22;20233;50.804;7.126;2023-08-06T14:44:30;16.30;99.90
33955;DHT22;20233;50.804;7.126;2023-08-06T14:46:56;16.30;99.90
33955;DHT22;20233;50.804;7.126;2023-08-06T14:49:22;16.40;99.90
33955;DHT22;20233;50.804;7.126;2023-08-06T14:51:48;16.30;99.90
33955;DHT22;20233;50.804;7.126;2023-08-06T14:54:15;16.50;99.90
33955;DHT22;20233;50.804;7.126;2023-08-06T14:56:41;16.40;99.90
33955;DHT22;20233;50.804;7.126;2023-08-06T14:59:06;16.40;99.90
33955;DHT22;20233;50.804;7.126;2023-08-06T15:01:32;16.40;99.90
33955;DHT22;20233;50.804;7.126;2023-08-06T15:03:58;16.40;99.90
33955;DHT22;20233;50.804;7.126;2023-08-06T15:06:23;16.40;99.90
33955;DHT22;20233;50.804;7.126;2023-08-06T15:08:49;16.30;99.90
33955;DHT22;20233;50.804;7.126;2023-08-06T15:11:16;16.30;99.90
33955;DHT22;20233;50.804;7.126;2023-08-06T15:13:42;16.30;99.90
33955;DHT22;20233;50.804;7.126;2023-08-06T15:16:07;16.50;99.90
33955;DHT22;20233;50.804;7.126;2023-08-06T15:18:33;16.60;99.90
33955;DHT22;20233;50.804;7.126;2023-08-06T15:20:58;16.70;99.90
33955;DHT22;20233;50.804;7.126;2023-08-06T15:23:24;16.70;99.90
33955;DHT22;20233;50.804;7.126;2023-08-06T15:25:50;16.80;99.90
33955;DHT22;20233;50.804;7.126;2023-08-06T15:28:17;16.80;99.90
33955;DHT22;20233;50.804;7.126;2023-08-06T15:30:51;16.90;99.90
33955;DHT22;20233;50.804;7.126;2023-08-06T15:33:18;16.90;99.90
33955;DHT22;20233;50.804;7.126;2023-08-06T15:35:44;16.90;99.90
33955;DHT22;20233;50.804;7.126;2023-08-06T15:38:10;16.90;99.90
33955;DHT22;20233;50.804;7.126;2023-08-06T15:40:35;16.80;99.90
33955;DHT22;20233;50.804;7.126;2023-08-06T15:43:02;16.80;99.90
33955;DHT22;20233;50.804;7.126;2023-08-06T15:45:27;16.70;99.90
33955;DHT22;20233;50.804;7.126;2023-08-06T15:47:53;16.80;99.90